Time;durP1;ratioP1;P1;durP2;ratioP2;P2;SDS_P1;SDS_P2;PMS_P1;PMS_P2;Temp;Humidity;BMP_temperature;BMP_pressure;BME280_temperature;BME280_humidity;BME280_pressure;Samples;Min_cycle;Max_cycle;Signal;HPM_P1;HPM_P2
2022/01/14 00:01:44;;;;;;;28.63;19.47;;;;;;;;;;5009684;28;20116;-63
2022/01/14 00:04:10;;;;;;;31.63;19.93;;;;;;;;;;4992807;28;20116;-63
2022/01/14 00:06:37;;;;;;;31.43;20.53;;;;;;;;;;5009972;28;20095;-63
2022/01/14 00:09:06;;;;;;;32.27;20.20;;;;;;;;;;5008188;28;20531;-63
2022/01/14 00:11:36;;;;;;;34.67;21.03;;;;;;;;;;5006225;28;20545;-63
2022/01/14 00:16:32;;;;;;;30.80;20.23;;;;;;;;;;5011962;28;20193;-63
2022/01/14 00:18:58;;;;;;;32.17;19.00;;;;;;;;;;5013647;28;20124;-63
2022/01/14 00:21:25;;;;;;;27.77;17.80;;;;;;;;;;5010909;28;20479;-63
2022/01/14 00:24:03;;;;;;;32.10;20.13;;;;;;;;;;5013719;28;20506;-63
2022/01/14 00:32:05;;;;;;;30.37;19.30;;;;;;;;;;5008897;28;20494;-63
2022/01/14 00:34:31;;;;;;;28.80;19.10;;;;;;;;;;5006419;28;20546;-64
2022/01/14 00:37:00;;;;;;;30.63;19.13;;;;;;;;;;5013592;28;20106;-63
2022/01/14 00:39:26;;;;;;;30.20;18.13;;;;;;;;;;5009459;28;20022;-63
2022/01/14 00:41:52;;;;;;;28.50;18.53;;;;;;;;;;5010213;28;20022;-63
2022/01/14 00:44:18;;;;;;;28.33;18.47;;;;;;;;;;5015309;28;20022;-63
2022/01/14 00:46:46;;;;;;;29.73;20.47;;;;;;;;;;5012044;28;20019;-62
2022/01/14 00:49:12;;;;;;;30.87;20.30;;;;;;;;;;5008288;28;20057;-63
2022/01/14 00:51:38;;;;;;;30.50;19.50;;;;;;;;;;5028066;28;20038;-62
2022/01/14 00:54:05;;;;;;;27.87;19.37;;;;;;;;;;5012382;28;20030;-63
2022/01/14 00:57:03;;;;;;;35.57;19.53;;;;;;;;;;5011109;28;20795;-62
2022/01/14 00:59:20;;;;;;;28.07;19.83;;;;;;;;;;5012151;28;20045;-63
2022/01/14 01:01:58;;;;;;;29.07;20.93;;;;;;;;;;5008816;28;20171;-63
2022/01/14 01:04:31;;;;;;;26.40;18.90;;;;;;;;;;5008620;28;20393;-63
2022/01/14 01:06:57;;;;;;;29.63;20.83;;;;;;;;;;5010772;28;20014;-63
2022/01/14 01:09:25;;;;;;;30.43;21.43;;;;;;;;;;5013050;28;20037;-63
2022/01/14 01:11:54;;;;;;;28.33;19.80;;;;;;;;;;5009221;28;20149;-63
2022/01/14 01:20:53;;;;;;;33.90;21.33;;;;;;;;;;5002116;28;20080;-63
2022/01/14 01:23:19;;;;;;;31.47;19.50;;;;;;;;;;4990725;28;20551;-63
2022/01/14 01:25:51;;;;;;;29.87;20.77;;;;;;;;;;5011333;28;20034;-63
2022/01/14 01:28:17;;;;;;;27.10;18.73;;;;;;;;;;5008132;28;20026;-64
2022/01/14 01:33:15;;;;;;;34.97;21.63;;;;;;;;;;5011641;28;20037;-63
2022/01/14 01:35:42;;;;;;;32.50;21.47;;;;;;;;;;5006287;28;20046;-63
2022/01/14 01:38:15;;;;;;;33.20;21.70;;;;;;;;;;4998295;28;20034;-63
2022/01/14 01:40:41;;;;;;;31.47;21.03;;;;;;;;;;5009239;28;20052;-64
2022/01/14 01:43:09;;;;;;;30.13;21.57;;;;;;;;;;4993796;28;20030;-63
2022/01/14 01:45:36;;;;;;;35.43;22.00;;;;;;;;;;5010144;28;20113;-63
2022/01/14 01:48:02;;;;;;;32.70;22.57;;;;;;;;;;5005387;28;20030;-63
2022/01/14 01:50:29;;;;;;;30.17;22.10;;;;;;;;;;5003728;28;20026;-63
2022/01/14 01:52:55;;;;;;;34.00;23.37;;;;;;;;;;5008310;28;20022;-63
2022/01/14 01:55:22;;;;;;;31.87;21.80;;;;;;;;;;5002087;28;20034;-63
2022/01/14 01:57:52;;;;;;;31.17;22.20;;;;;;;;;;5008307;28;20515;-63
2022/01/14 02:00:20;;;;;;;37.13;22.60;;;;;;;;;;5008991;28;20044;-63
2022/01/14 02:02:47;;;;;;;35.43;23.50;;;;;;;;;;5009835;28;20026;-63
2022/01/14 02:05:14;;;;;;;31.83;23.10;;;;;;;;;;5011077;28;20022;-63
2022/01/14 02:07:40;;;;;;;31.90;22.33;;;;;;;;;;5011321;28;20091;-63
2022/01/14 02:10:07;;;;;;;32.23;22.70;;;;;;;;;;5009235;28;20026;-63
2022/01/14 02:12:45;;;;;;;30.33;22.57;;;;;;;;;;5010063;28;20032;-64
2022/01/14 02:15:24;;;;;;;37.37;24.07;;;;;;;;;;4994064;28;20129;-64
2022/01/14 02:23:04;;;;;;;35.60;23.13;;;;;;;;;;5006599;28;20077;-63
2022/01/14 02:25:31;;;;;;;35.67;22.53;;;;;;;;;;5011709;28;20026;-63
2022/01/14 02:27:57;;;;;;;32.93;23.27;;;;;;;;;;5007042;28;20097;-63
2022/01/14 02:30:24;;;;;;;37.50;23.97;;;;;;;;;;5007855;28;20037;-63
2022/01/14 02:32:50;;;;;;;38.40;24.73;;;;;;;;;;4993548;28;20115;-63
2022/01/14 02:35:16;;;;;;;40.70;24.27;;;;;;;;;;5010380;28;20041;-63
2022/01/14 02:37:43;;;;;;;32.73;22.13;;;;;;;;;;5007449;28;20041;-63
2022/01/14 02:40:09;;;;;;;32.70;23.60;;;;;;;;;;5007330;28;20395;-63
2022/01/14 02:42:35;;;;;;;35.07;23.97;;;;;;;;;;5008130;28;20371;-63
2022/01/14 02:45:05;;;;;;;33.87;23.43;;;;;;;;;;5011139;28;20467;-63
2022/01/14 02:47:32;;;;;;;35.03;23.23;;;;;;;;;;5009889;28;20026;-63
2022/01/14 02:49:58;;;;;;;36.27;23.40;;;;;;;;;;5004578;28;20038;-63
2022/01/14 02:52:39;;;;;;;33.57;23.23;;;;;;;;;;5011196;28;20037;-63
2022/01/14 02:55:15;;;;;;;34.73;23.87;;;;;;;;;;5004849;28;20037;-63
2022/01/14 02:57:49;;;;;;;34.47;24.00;;;;;;;;;;5010502;28;20018;-63
2022/01/14 03:00:17;;;;;;;35.50;23.10;;;;;;;;;;4989218;28;20113;-63
2022/01/14 03:02:45;;;;;;;35.93;24.30;;;;;;;;;;5009057;28;20087;-62
2022/01/14 03:05:11;;;;;;;40.20;24.20;;;;;;;;;;5007309;28;20039;-63
2022/01/14 03:07:38;;;;;;;36.97;23.23;;;;;;;;;;5009015;28;20034;-63
2022/01/14 03:10:05;;;;;;;37.37;24.70;;;;;;;;;;5010334;28;20029;-63
2022/01/14 03:12:31;;;;;;;37.03;24.47;;;;;;;;;;5008479;28;20033;-63
2022/01/14 03:14:57;;;;;;;40.63;24.60;;;;;;;;;;5003952;28;20049;-63
2022/01/14 03:17:23;;;;;;;38.77;23.73;;;;;;;;;;5009235;28;20549;-63
2022/01/14 03:19:49;;;;;;;36.70;24.10;;;;;;;;;;5009338;28;20053;-63
2022/01/14 03:22:27;;;;;;;33.80;23.03;;;;;;;;;;5009741;28;20447;-63
2022/01/14 03:27:20;;;;;;;38.23;24.23;;;;;;;;;;5007451;28;20038;-63
2022/01/14 03:29:46;;;;;;;40.73;24.63;;;;;;;;;;5007726;28;20060;-63
2022/01/14 03:32:12;;;;;;;30.67;22.10;;;;;;;;;;5010597;28;20034;-63
2022/01/14 03:34:38;;;;;;;35.83;22.23;;;;;;;;;;4991654;28;20034;-63
2022/01/14 03:37:05;;;;;;;33.03;23.30;;;;;;;;;;5003720;28;20049;-63
2022/01/14 03:39:31;;;;;;;32.40;23.17;;;;;;;;;;5001387;28;20034;-63
2022/01/14 03:41:58;;;;;;;34.63;23.90;;;;;;;;;;5010269;28;20518;-64
2022/01/14 03:44:24;;;;;;;34.67;23.43;;;;;;;;;;5005893;28;20037;-63
2022/01/14 03:46:50;;;;;;;36.50;24.23;;;;;;;;;;5004838;28;20042;-64
2022/01/14 03:49:16;;;;;;;32.67;24.27;;;;;;;;;;5008690;28;20076;-63
2022/01/14 03:51:42;;;;;;;34.73;24.03;;;;;;;;;;5014743;28;20077;-63
2022/01/14 03:54:09;;;;;;;34.97;23.57;;;;;;;;;;5011507;28;20493;-63
2022/01/14 03:59:38;;;;;;;32.80;22.33;;;;;;;;;;5009656;28;20081;-63
2022/01/14 04:02:05;;;;;;;31.27;22.47;;;;;;;;;;5010404;28;20026;-63
2022/01/14 04:04:31;;;;;;;31.17;21.70;;;;;;;;;;4994204;28;20053;-62
2022/01/14 04:06:57;;;;;;;34.27;21.50;;;;;;;;;;5014087;28;20037;-63
2022/01/14 04:09:23;;;;;;;35.40;23.27;;;;;;;;;;5011048;28;20527;-64
2022/01/14 04:11:49;;;;;;;31.70;22.97;;;;;;;;;;5014440;28;20040;-63
2022/01/14 04:16:49;;;;;;;;;;;;;;;;;;5014460;28;20061;-63
2022/01/14 04:19:15;;;;;;;36.83;23.23;;;;;;;;;;5012328;28;20344;-63
2022/01/14 04:21:41;;;;;;;31.43;21.97;;;;;;;;;;5013025;28;20036;-63
2022/01/14 04:24:07;;;;;;;31.30;22.43;;;;;;;;;;5012583;28;20022;-63
2022/01/14 04:26:33;;;;;;;31.03;21.93;;;;;;;;;;5012774;28;20434;-63
2022/01/14 04:28:59;;;;;;;34.23;23.70;;;;;;;;;;5012999;28;20109;-64
2022/01/14 04:31:25;;;;;;;33.43;21.80;;;;;;;;;;5012153;28;20073;-63
2022/01/14 04:33:51;;;;;;;35.47;22.40;;;;;;;;;;5000373;28;20060;-63
2022/01/14 04:36:17;;;;;;;34.43;23.27;;;;;;;;;;5010742;28;20062;-62
2022/01/14 04:38:44;;;;;;;31.40;22.57;;;;;;;;;;5013299;28;20076;-62
2022/01/14 04:41:10;;;;;;;36.13;23.97;;;;;;;;;;5007227;28;20021;-62
2022/01/14 04:43:36;;;;;;;33.63;22.93;;;;;;;;;;5013503;28;20056;-63
2022/01/14 04:48:33;;;;;;;32.63;22.37;;;;;;;;;;5005596;28;20505;-62
2022/01/14 04:51:00;;;;;;;32.30;23.37;;;;;;;;;;5005953;28;20471;-63
2022/01/14 04:53:27;;;;;;;37.70;23.60;;;;;;;;;;5006457;28;20037;-62
2022/01/14 04:55:54;;;;;;;36.37;23.33;;;;;;;;;;5002298;28;20114;-63
2022/01/14 04:58:20;;;;;;;35.23;22.30;;;;;;;;;;5012116;28;20037;-62
2022/01/14 05:00:47;;;;;;;31.77;21.87;;;;;;;;;;5006833;28;20037;-62
2022/01/14 05:06:16;;;;;;;33.70;22.47;;;;;;;;;;5011511;28;20080;-63
2022/01/14 05:08:42;;;;;;;33.23;23.17;;;;;;;;;;5010792;28;20037;-63
2022/01/14 05:13:43;;;;;;;;;;;;;;;;;;5011307;28;20037;-63
2022/01/14 05:16:09;;;;;;;35.00;22.50;;;;;;;;;;5001175;28;19918;-63
2022/01/14 05:18:38;;;;;;;32.13;23.00;;;;;;;;;;4995146;28;20060;-63
2022/01/14 05:21:04;;;;;;;40.83;25.33;;;;;;;;;;5007678;28;20034;-63
2022/01/14 05:23:30;;;;;;;34.13;22.80;;;;;;;;;;5004185;28;20044;-63
2022/01/14 05:25:56;;;;;;;31.93;22.93;;;;;;;;;;5001805;28;20038;-63
2022/01/14 05:28:22;;;;;;;37.27;23.17;;;;;;;;;;5007621;28;20040;-63
2022/01/14 05:30:48;;;;;;;31.20;22.00;;;;;;;;;;4987657;28;20042;-63
2022/01/14 05:33:17;;;;;;;34.60;22.17;;;;;;;;;;5009343;28;20033;-63
2022/01/14 05:35:44;;;;;;;31.80;20.90;;;;;;;;;;5007702;28;20486;-63
2022/01/14 05:38:10;;;;;;;29.60;20.23;;;;;;;;;;5013250;28;20026;-63
2022/01/14 05:41:01;;;;;;;30.57;20.43;;;;;;;;;;5008470;28;20033;-63
2022/01/14 05:43:27;;;;;;;28.97;20.13;;;;;;;;;;5012060;28;20033;-64
2022/01/14 05:45:53;;;;;;;32.37;20.90;;;;;;;;;;4996003;28;20049;-64
2022/01/14 05:48:19;;;;;;;28.97;19.83;;;;;;;;;;5003034;28;20034;-64
2022/01/14 06:03:00;;;;;;;29.33;18.70;;;;;;;;;;5011066;28;20036;-64
2022/01/14 06:05:26;;;;;;;25.47;18.53;;;;;;;;;;5009001;28;20124;-64
2022/01/14 06:07:52;;;;;;;23.57;17.33;;;;;;;;;;5011667;28;20114;-64
2022/01/14 06:10:19;;;;;;;26.67;18.67;;;;;;;;;;5006762;28;20570;-63
2022/01/14 06:12:45;;;;;;;26.63;16.87;;;;;;;;;;5011071;28;20105;-64
2022/01/14 06:15:11;;;;;;;22.10;16.60;;;;;;;;;;5010197;28;20126;-63
2022/01/14 06:17:37;;;;;;;24.03;16.97;;;;;;;;;;5015934;28;20029;-63
2022/01/14 06:20:04;;;;;;;24.17;15.63;;;;;;;;;;5007598;28;20048;-63
2022/01/14 06:22:30;;;;;;;26.37;17.03;;;;;;;;;;5011177;28;20024;-64
2022/01/14 06:24:57;;;;;;;25.83;16.83;;;;;;;;;;5013442;28;20037;-63
2022/01/14 06:27:23;;;;;;;22.17;16.37;;;;;;;;;;4987001;28;20415;-64
2022/01/14 06:29:49;;;;;;;24.07;15.93;;;;;;;;;;4997741;28;20029;-64
2022/01/14 06:32:15;;;;;;;22.17;16.60;;;;;;;;;;5010426;28;20029;-64
2022/01/14 06:34:41;;;;;;;24.10;17.80;;;;;;;;;;5013449;28;20173;-64
2022/01/14 06:37:07;;;;;;;24.43;17.13;;;;;;;;;;5008256;28;20089;-64
2022/01/14 06:39:33;;;;;;;26.00;16.87;;;;;;;;;;5012372;28;20022;-64
2022/01/14 06:41:59;;;;;;;23.30;16.57;;;;;;;;;;5010070;28;20045;-64
2022/01/14 06:44:25;;;;;;;25.90;15.20;;;;;;;;;;5012898;28;20025;-63
2022/01/14 06:46:51;;;;;;;26.33;15.43;;;;;;;;;;5009327;28;20033;-64
2022/01/14 06:49:17;;;;;;;22.47;15.33;;;;;;;;;;5010489;28;20475;-64
2022/01/14 06:51:43;;;;;;;25.20;16.03;;;;;;;;;;5008055;28;20108;-64
2022/01/14 06:54:09;;;;;;;18.00;14.50;;;;;;;;;;4997268;28;20026;-64
2022/01/14 06:56:38;;;;;;;19.53;14.03;;;;;;;;;;5008270;28;20076;-64
2022/01/14 06:59:04;;;;;;;20.83;14.87;;;;;;;;;;5010679;28;20076;-63
2022/01/14 07:01:31;;;;;;;29.53;15.13;;;;;;;;;;5004775;28;20770;-64
2022/01/14 07:03:56;;;;;;;20.60;13.73;;;;;;;;;;4992117;28;20056;-63
2022/01/14 07:06:22;;;;;;;23.07;12.87;;;;;;;;;;5008731;28;20061;-64
2022/01/14 07:08:48;;;;;;;21.90;13.63;;;;;;;;;;5008343;28;20050;-63
2022/01/14 07:11:15;;;;;;;27.00;14.73;;;;;;;;;;5006118;28;20105;-63
2022/01/14 07:13:41;;;;;;;20.13;13.30;;;;;;;;;;5004002;28;20396;-64
2022/01/14 07:16:07;;;;;;;21.43;14.37;;;;;;;;;;5002472;28;20105;-63
2022/01/14 07:21:38;;;;;;;24.63;13.83;;;;;;;;;;5008195;28;20157;-64
2022/01/14 07:24:04;;;;;;;22.73;14.37;;;;;;;;;;5016334;28;20643;-64
2022/01/14 07:26:31;;;;;;;20.53;13.93;;;;;;;;;;4990327;28;20057;-64
2022/01/14 07:28:57;;;;;;;23.40;14.80;;;;;;;;;;5009019;28;20034;-64
2022/01/14 07:31:23;;;;;;;19.33;13.67;;;;;;;;;;5009325;28;20030;-64
2022/01/14 07:36:53;;;;;;;17.17;12.23;;;;;;;;;;5008599;28;20466;-64
2022/01/14 07:39:23;;;;;;;18.43;13.17;;;;;;;;;;5011246;28;20110;-64
2022/01/14 07:41:49;;;;;;;17.57;12.23;;;;;;;;;;4998362;28;20058;-64
2022/01/14 07:44:15;;;;;;;19.13;14.67;;;;;;;;;;4992253;28;20098;-65
2022/01/14 07:46:42;;;;;;;21.07;14.23;;;;;;;;;;4974408;28;20467;-64
2022/01/14 07:49:08;;;;;;;23.17;14.60;;;;;;;;;;4992160;28;20460;-64
2022/01/14 07:51:34;;;;;;;22.10;14.77;;;;;;;;;;4992304;28;20038;-64
2022/01/14 07:54:05;;;;;;;18.83;13.50;;;;;;;;;;5000589;28;20204;-65
2022/01/14 07:56:32;;;;;;;21.27;15.00;;;;;;;;;;4992827;28;20395;-64
2022/01/14 07:58:58;;;;;;;22.17;13.90;;;;;;;;;;4991502;28;20046;-64
2022/01/14 08:01:24;;;;;;;21.50;13.70;;;;;;;;;;5009922;28;20034;-65
2022/01/14 08:03:50;;;;;;;18.43;13.60;;;;;;;;;;5011387;28;20846;-64
2022/01/14 08:06:17;;;;;;;16.03;13.67;;;;;;;;;;4993013;28;20045;-64
2022/01/14 08:08:43;;;;;;;21.40;12.80;;;;;;;;;;4992947;28;20142;-64
2022/01/14 08:11:09;;;;;;;21.37;13.63;;;;;;;;;;5004676;28;20214;-64
2022/01/14 08:23:02;;;;;;;;;;;;;;;;;;4986077;28;20069;-64
2022/01/14 08:25:28;;;;;;;18.37;12.70;;;;;;;;;;5007753;28;19925;-64
2022/01/14 08:27:54;;;;;;;25.30;14.27;;;;;;;;;;5011089;28;20045;-64
2022/01/14 08:40:06;;;;;;;19.17;13.47;;;;;;;;;;5010875;28;20121;-64
2022/01/14 08:42:32;;;;;;;19.30;13.90;;;;;;;;;;5012886;28;20037;-64
2022/01/14 08:44:59;;;;;;;18.30;13.23;;;;;;;;;;5015293;28;20033;-64
2022/01/14 08:47:25;;;;;;;18.83;12.47;;;;;;;;;;5015391;28;20117;-64
2022/01/14 08:52:59;;;;;;;19.93;13.00;;;;;;;;;;5008971;28;20033;-64
2022/01/14 08:55:25;;;;;;;17.50;12.27;;;;;;;;;;5012801;28;20033;-64
2022/01/14 08:57:52;;;;;;;17.00;12.47;;;;;;;;;;5015395;28;20375;-64
2022/01/14 09:00:19;;;;;;;18.37;13.17;;;;;;;;;;5011332;28;20018;-64
2022/01/14 09:02:45;;;;;;;17.43;12.63;;;;;;;;;;5011250;28;20033;-63
2022/01/14 09:05:12;;;;;;;21.67;12.70;;;;;;;;;;5012001;28;20375;-63
2022/01/14 09:07:38;;;;;;;20.97;13.07;;;;;;;;;;5013913;28;20096;-64
2022/01/14 09:10:05;;;;;;;18.83;13.33;;;;;;;;;;5006424;28;20479;-63
2022/01/14 09:12:31;;;;;;;19.60;12.80;;;;;;;;;;4997449;28;20498;-64
2022/01/14 09:14:57;;;;;;;18.87;13.33;;;;;;;;;;5005121;28;20042;-64
2022/01/14 09:17:23;;;;;;;17.67;13.23;;;;;;;;;;5015309;28;20041;-63
2022/01/14 09:19:52;;;;;;;20.67;12.43;;;;;;;;;;5012312;28;20026;-63
2022/01/14 09:22:18;;;;;;;15.87;11.97;;;;;;;;;;5012167;28;20030;-63
2022/01/14 09:24:47;;;;;;;15.77;11.30;;;;;;;;;;5013826;28;20045;-63
2022/01/14 09:27:14;;;;;;;14.83;11.90;;;;;;;;;;5010512;28;20030;-64
2022/01/14 09:29:42;;;;;;;16.40;10.40;;;;;;;;;;5006535;28;20579;-64
2022/01/14 09:32:08;;;;;;;16.47;10.50;;;;;;;;;;5003395;28;20119;-64
2022/01/14 09:34:35;;;;;;;18.03;10.90;;;;;;;;;;5009959;28;20033;-63
2022/01/14 09:37:01;;;;;;;15.80;11.33;;;;;;;;;;4980681;28;20042;-63
2022/01/14 09:39:27;;;;;;;13.77;10.47;;;;;;;;;;5011531;28;20475;-63
2022/01/14 09:41:54;;;;;;;19.17;10.70;;;;;;;;;;4995690;28;20046;-63
2022/01/14 09:44:20;;;;;;;14.40;11.50;;;;;;;;;;5013737;28;20054;-63
2022/01/14 09:46:52;;;;;;;16.07;10.90;;;;;;;;;;4997757;28;20062;-63
2022/01/14 09:49:19;;;;;;;19.33;11.90;;;;;;;;;;5011709;28;20053;-63
2022/01/14 09:51:46;;;;;;;14.60;10.63;;;;;;;;;;5011631;28;20444;-63
2022/01/14 09:54:12;;;;;;;18.00;11.77;;;;;;;;;;5010901;28;20822;-63
2022/01/14 09:59:48;;;;;;;16.50;10.97;;;;;;;;;;4997402;28;20037;-63
2022/01/14 10:02:31;;;;;;;17.03;11.97;;;;;;;;;;5012961;28;20033;-63
2022/01/14 10:04:57;;;;;;;17.77;12.30;;;;;;;;;;4994809;28;20026;-63
2022/01/14 10:07:23;;;;;;;17.57;11.50;;;;;;;;;;5012140;28;20026;-62
2022/01/14 10:09:56;;;;;;;16.83;11.63;;;;;;;;;;5012820;28;20346;-62
2022/01/14 10:12:22;;;;;;;20.53;12.57;;;;;;;;;;5014030;28;20375;-63
2022/01/14 10:15:12;;;;;;;19.10;11.60;;;;;;;;;;5006331;28;20034;-63
2022/01/14 10:17:40;;;;;;;15.67;11.00;;;;;;;;;;5014132;28;20030;-63
2022/01/14 10:20:08;;;;;;;16.63;10.80;;;;;;;;;;5012279;28;20033;-63
2022/01/14 10:22:35;;;;;;;15.90;11.57;;;;;;;;;;5012955;28;20018;-63
2022/01/14 10:25:38;;;;;;;16.90;11.13;;;;;;;;;;4984481;28;20065;-63
2022/01/14 10:28:31;;;;;;;18.43;11.53;;;;;;;;;;5010998;28;20044;-63
2022/01/14 10:30:57;;;;;;;15.67;11.33;;;;;;;;;;5000437;28;20029;-63
2022/01/14 10:33:26;;;;;;;18.57;11.33;;;;;;;;;;5012373;28;20113;-63
2022/01/14 10:35:53;;;;;;;17.50;11.80;;;;;;;;;;5010912;28;20049;-63
2022/01/14 10:38:20;;;;;;;19.73;12.07;;;;;;;;;;5004216;28;20030;-63
2022/01/14 10:40:47;;;;;;;20.87;12.10;;;;;;;;;;4994356;28;20030;-63
2022/01/14 10:43:15;;;;;;;17.17;12.57;;;;;;;;;;5008208;28;20032;-63
2022/01/14 10:45:43;;;;;;;21.20;13.00;;;;;;;;;;5004034;28;20053;-63
2022/01/14 10:48:16;;;;;;;19.20;13.33;;;;;;;;;;4994233;28;20117;-63
2022/01/14 10:50:43;;;;;;;17.40;12.37;;;;;;;;;;5002911;28;20039;-64
2022/01/14 10:53:22;;;;;;;19.77;12.57;;;;;;;;;;4993392;28;20395;-64
2022/01/14 10:55:49;;;;;;;18.47;12.53;;;;;;;;;;5003332;28;20088;-63
2022/01/14 10:58:17;;;;;;;19.63;12.10;;;;;;;;;;5011773;28;20033;-63
2022/01/14 11:00:44;;;;;;;21.10;13.57;;;;;;;;;;5003795;28;20487;-63
2022/01/14 11:03:11;;;;;;;17.73;12.20;;;;;;;;;;5011607;28;20030;-63
2022/01/14 11:05:37;;;;;;;19.47;12.77;;;;;;;;;;5006123;28;20030;-63
2022/01/14 11:08:03;;;;;;;20.50;12.57;;;;;;;;;;5010606;28;20036;-63
2022/01/14 11:10:33;;;;;;;20.53;12.97;;;;;;;;;;4990359;28;20129;-63
2022/01/14 11:13:00;;;;;;;20.10;12.70;;;;;;;;;;5009717;28;20109;-63
2022/01/14 11:15:27;;;;;;;22.17;12.97;;;;;;;;;;4989461;28;20401;-63
2022/01/14 11:17:55;;;;;;;22.23;13.37;;;;;;;;;;5004540;28;20030;-64
2022/01/14 11:20:29;;;;;;;21.27;14.37;;;;;;;;;;4987955;28;20045;-63
2022/01/14 11:25:43;;;;;;;27.30;15.88;;;;;;;;;;5008799;28;20088;-63
2022/01/14 11:28:10;;;;;;;25.53;15.20;;;;;;;;;;5005935;28;20029;-63
2022/01/14 11:30:38;;;;;;;21.90;14.27;;;;;;;;;;5007367;28;20030;-63
2022/01/14 11:33:05;;;;;;;19.33;14.00;;;;;;;;;;5002398;28;20037;-63
2022/01/14 11:35:32;;;;;;;25.67;14.73;;;;;;;;;;5006207;28;20077;-63
2022/01/14 11:37:58;;;;;;;19.23;13.83;;;;;;;;;;5006818;28;20177;-63
2022/01/14 11:40:24;;;;;;;20.60;13.33;;;;;;;;;;5008726;28;20030;-63
2022/01/14 11:43:01;;;;;;;22.40;13.83;;;;;;;;;;5001759;28;20025;-63
2022/01/14 11:45:40;;;;;;;23.77;15.37;;;;;;;;;;4990551;28;20027;-63
2022/01/14 11:48:07;;;;;;;25.13;14.83;;;;;;;;;;5009037;28;20025;-63
2022/01/14 11:50:33;;;;;;;22.87;14.43;;;;;;;;;;5007828;28;20037;-63
2022/01/14 11:52:59;;;;;;;20.17;13.53;;;;;;;;;;5011589;28;20021;-63
2022/01/14 11:55:31;;;;;;;20.03;14.23;;;;;;;;;;5008584;28;20558;-63
2022/01/14 11:57:58;;;;;;;23.20;13.87;;;;;;;;;;5006149;28;20065;-63
2022/01/14 12:00:27;;;;;;;22.07;14.60;;;;;;;;;;5007984;28;20038;-63
2022/01/14 12:02:54;;;;;;;25.67;15.60;;;;;;;;;;5007096;28;20033;-63
2022/01/14 12:05:22;;;;;;;22.93;16.13;;;;;;;;;;5010381;28;20041;-63
2022/01/14 12:07:57;;;;;;;24.80;16.70;;;;;;;;;;4999274;28;20058;-63
2022/01/14 12:10:29;;;;;;;24.40;15.70;;;;;;;;;;5001636;28;20038;-63
2022/01/14 12:13:14;;;;;;;26.83;16.87;;;;;;;;;;5013232;28;20383;-63
2022/01/14 12:15:51;;;;;;;26.75;18.30;;;;;;;;;;5006168;28;20038;-63
2022/01/14 12:18:17;;;;;;;28.97;18.23;;;;;;;;;;5012588;28;20045;-64
2022/01/14 12:20:49;;;;;;;31.07;19.83;;;;;;;;;;5012640;28;20038;-64
2022/01/14 12:23:19;;;;;;;32.47;21.20;;;;;;;;;;5015481;28;20026;-64
2022/01/14 12:25:45;;;;;;;35.07;20.90;;;;;;;;;;5002417;28;20448;-63
2022/01/14 12:28:22;;;;;;;34.00;20.27;;;;;;;;;;5012354;28;20049;-63
2022/01/14 12:30:57;;;;;;;34.23;21.00;;;;;;;;;;5009539;28;20026;-63
2022/01/14 12:33:45;;;;;;;34.97;22.17;;;;;;;;;;5015150;28;20025;-63
2022/01/14 12:36:15;;;;;;;35.00;21.50;;;;;;;;;;4994210;28;20037;-63
2022/01/14 12:41:45;;;;;;;31.13;20.77;;;;;;;;;;5007934;28;20042;-64
2022/01/14 12:44:11;;;;;;;36.67;23.50;;;;;;;;;;5013708;28;20037;-64
2022/01/14 12:49:11;;;;;;;36.63;22.70;;;;;;;;;;5013243;28;20045;-64
2022/01/14 12:51:37;;;;;;;32.47;21.03;;;;;;;;;;5012982;28;20049;-64
2022/01/14 12:54:04;;;;;;;30.30;20.70;;;;;;;;;;5012590;28;20026;-64
2022/01/14 12:56:31;;;;;;;33.13;21.13;;;;;;;;;;5010555;28;20072;-64
2022/01/14 12:59:16;;;;;;;34.90;22.00;;;;;;;;;;4984773;28;20114;-64
2022/01/14 13:01:44;;;;;;;27.13;17.67;;;;;;;;;;5011213;28;20060;-64
2022/01/14 13:04:11;;;;;;;27.50;16.93;;;;;;;;;;4993567;28;20280;-63
2022/01/14 13:06:45;;;;;;;23.00;15.70;;;;;;;;;;4995850;28;20376;-63
2022/01/14 13:09:11;;;;;;;24.47;16.30;;;;;;;;;;4976714;28;20026;-64
2022/01/14 13:11:47;;;;;;;23.73;15.90;;;;;;;;;;4994267;28;20027;-63
2022/01/14 13:14:17;;;;;;;24.20;16.73;;;;;;;;;;4994136;28;20026;-64
2022/01/14 13:16:44;;;;;;;25.20;16.37;;;;;;;;;;4978231;28;20034;-65
2022/01/14 13:19:24;;;;;;;27.13;17.77;;;;;;;;;;5012040;28;20057;-65
2022/01/14 13:21:50;;;;;;;23.93;15.77;;;;;;;;;;5013133;28;20526;-64
2022/01/14 13:24:35;;;;;;;24.40;16.90;;;;;;;;;;5013074;28;20068;-65
2022/01/14 13:27:09;;;;;;;22.30;17.17;;;;;;;;;;4977147;28;20037;-64
2022/01/14 13:29:38;;;;;;;26.80;16.67;;;;;;;;;;4999640;28;20379;-64
2022/01/14 13:32:05;;;;;;;26.73;17.13;;;;;;;;;;5009384;28;20068;-64
2022/01/14 13:34:31;;;;;;;25.73;16.63;;;;;;;;;;4976657;28;20034;-64
2022/01/14 13:36:57;;;;;;;26.80;16.93;;;;;;;;;;4993877;28;20099;-64
2022/01/14 13:39:23;;;;;;;24.50;16.33;;;;;;;;;;4994441;28;20177;-64
2022/01/14 13:41:49;;;;;;;26.50;16.83;;;;;;;;;;4993912;28;20110;-64
2022/01/14 13:44:20;;;;;;;24.67;17.43;;;;;;;;;;4998997;28;20029;-64
2022/01/14 13:46:49;;;;;;;21.90;16.17;;;;;;;;;;5013235;28;20340;-64
2022/01/14 13:49:21;;;;;;;24.97;17.53;;;;;;;;;;5014735;28;20056;-64
2022/01/14 13:52:00;;;;;;;25.03;17.13;;;;;;;;;;5013520;28;20018;-64
2022/01/14 13:54:26;;;;;;;31.40;17.20;;;;;;;;;;4997999;28;20403;-65
2022/01/14 13:56:52;;;;;;;34.60;18.33;;;;;;;;;;5010973;28;20030;-65
2022/01/14 13:59:21;;;;;;;25.97;15.83;;;;;;;;;;4993994;28;20102;-65
2022/01/14 14:01:59;;;;;;;24.30;15.23;;;;;;;;;;4987332;28;20032;-64
2022/01/14 14:16:32;;;;;;;25.30;16.02;;;;;;;;;;5014820;28;20064;-64
2022/01/14 14:18:58;;;;;;;25.70;17.00;;;;;;;;;;5012628;28;20034;-65
2022/01/14 14:21:28;;;;;;;22.83;17.10;;;;;;;;;;5014293;28;20064;-65
2022/01/14 14:23:58;;;;;;;24.03;16.57;;;;;;;;;;4994442;28;20396;-65
2022/01/14 14:26:31;;;;;;;20.50;15.17;;;;;;;;;;4976413;28;20073;-64
2022/01/14 14:29:20;;;;;;;23.70;15.70;;;;;;;;;;4994735;28;20037;-64
2022/01/14 14:32:05;;;;;;;23.33;15.87;;;;;;;;;;4987352;28;20522;-64
2022/01/14 14:34:31;;;;;;;24.65;17.23;;;;;;;;;;5012694;28;20072;-64
2022/01/14 14:36:57;;;;;;;23.83;16.73;;;;;;;;;;5012194;28;20037;-64
2022/01/14 14:39:26;;;;;;;26.43;16.57;;;;;;;;;;5011942;28;20060;-63
2022/01/14 14:41:52;;;;;;;22.47;16.93;;;;;;;;;;5011674;28;20038;-63
2022/01/14 14:44:18;;;;;;;23.27;17.03;;;;;;;;;;4997250;28;20041;-63
2022/01/14 14:46:44;;;;;;;24.40;16.23;;;;;;;;;;5002857;28;20060;-63
2022/01/14 14:49:10;;;;;;;21.10;16.27;;;;;;;;;;4997591;28;20038;-63
2022/01/14 14:51:36;;;;;;;25.33;16.63;;;;;;;;;;4981820;28;20168;-63
2022/01/14 14:54:02;;;;;;;21.57;16.17;;;;;;;;;;4981932;28;20060;-63
2022/01/14 14:56:28;;;;;;;26.57;16.50;;;;;;;;;;4993962;28;20035;-63
2022/01/14 14:58:55;;;;;;;25.60;16.20;;;;;;;;;;4994303;28;20033;-64
2022/01/14 15:01:21;;;;;;;27.63;16.90;;;;;;;;;;4993903;28;20038;-63
2022/01/14 15:03:47;;;;;;;26.50;15.23;;;;;;;;;;4976825;28;20614;-63
2022/01/14 15:06:13;;;;;;;21.97;15.37;;;;;;;;;;4993548;28;20026;-63
2022/01/14 15:08:39;;;;;;;22.53;16.53;;;;;;;;;;4983748;28;20026;-63
2022/01/14 15:11:05;;;;;;;23.53;15.90;;;;;;;;;;4992682;28;20053;-63
2022/01/14 15:13:31;;;;;;;25.53;17.40;;;;;;;;;;4992408;28;20030;-64
2022/01/14 15:18:24;;;;;;;26.23;17.07;;;;;;;;;;4994194;28;20030;-63
2022/01/14 15:20:51;;;;;;;21.73;17.40;;;;;;;;;;4992185;28;20031;-63
2022/01/14 15:23:18;;;;;;;26.37;18.33;;;;;;;;;;4992195;28;20030;-63
2022/01/14 15:25:44;;;;;;;26.00;18.17;;;;;;;;;;4991988;28;20050;-63
2022/01/14 15:28:11;;;;;;;29.73;18.93;;;;;;;;;;4992230;28;20029;-63
2022/01/14 15:30:38;;;;;;;27.37;18.20;;;;;;;;;;5002933;28;20034;-63
2022/01/14 15:33:04;;;;;;;29.57;18.90;;;;;;;;;;5005754;28;20030;-63
2022/01/14 15:35:30;;;;;;;26.40;18.17;;;;;;;;;;4992114;28;20125;-63
2022/01/14 15:38:02;;;;;;;25.20;17.90;;;;;;;;;;4974241;28;20034;-62
2022/01/14 15:40:29;;;;;;;28.10;19.20;;;;;;;;;;4992543;28;20026;-63
2022/01/14 15:42:55;;;;;;;25.10;18.33;;;;;;;;;;4995018;28;20033;-63
2022/01/14 15:45:21;;;;;;;22.03;17.70;;;;;;;;;;4977059;28;20077;-63
2022/01/14 15:47:48;;;;;;;27.17;18.43;;;;;;;;;;5014402;28;20471;-63
2022/01/14 15:50:15;;;;;;;26.67;17.83;;;;;;;;;;4997652;28;20026;-63
2022/01/14 15:52:41;;;;;;;24.57;17.83;;;;;;;;;;4997272;28;20135;-63
2022/01/14 15:55:07;;;;;;;24.77;18.30;;;;;;;;;;5016761;28;20117;-63
2022/01/14 15:57:33;;;;;;;23.07;17.40;;;;;;;;;;5015728;28;20036;-64
2022/01/14 16:00:00;;;;;;;27.87;18.30;;;;;;;;;;4996389;28;20474;-63
2022/01/14 16:02:26;;;;;;;22.50;16.37;;;;;;;;;;4981465;28;20468;-63
2022/01/14 16:04:52;;;;;;;28.53;18.67;;;;;;;;;;4995913;28;20480;-64
2022/01/14 16:07:19;;;;;;;31.40;18.97;;;;;;;;;;4996047;28;20368;-64
2022/01/14 16:09:46;;;;;;;26.80;17.87;;;;;;;;;;4996859;28;20033;-63